Time;durP1;ratioP1;P1;durP2;ratioP2;P2;SDS_P1;SDS_P2;PMS_P1;PMS_P2;Temp;Humidity;BMP_temperature;BMP_pressure;BME280_temperature;BME280_humidity;BME280_pressure;Samples;Min_cycle;Max_cycle;Signal;HPM_P1;HPM_P2
2024/02/03 00:00:50;;;;;;;41.08;19.10;;;9.50;99.90;;;;;;4934875;29;20130;-75
2024/02/03 00:03:15;;;;;;;42.90;21.83;;;9.50;99.90;;;;;;4952784;29;20042;-74
2024/02/03 00:05:43;;;;;;;42.25;20.48;;;9.40;99.90;;;;;;4951556;28;20039;-74
2024/02/03 00:08:08;;;;;;;41.33;19.08;;;9.50;99.90;;;;;;4951108;29;20083;-76
2024/02/03 00:10:34;;;;;;;46.88;20.55;;;9.40;99.90;;;;;;4952489;28;20393;-75
2024/02/03 00:13:00;;;;;;;47.70;21.25;;;9.40;99.90;;;;;;4952925;28;20087;-76
2024/02/03 00:15:27;;;;;;;39.22;20.27;;;9.40;99.90;;;;;;4955260;28;20103;-74
2024/02/03 00:17:53;;;;;;;44.25;21.00;;;9.30;99.90;;;;;;4938456;29;20059;-75
2024/02/03 00:20:19;;;;;;;44.10;21.17;;;9.40;99.90;;;;;;4938422;29;20039;-73
2024/02/03 00:22:49;;;;;;;43.15;19.27;;;9.40;99.90;;;;;;4938232;29;20063;-74
2024/02/03 00:25:15;;;;;;;47.92;20.08;;;9.30;99.90;;;;;;4938473;29;21262;-72
2024/02/03 00:27:40;;;;;;;42.92;20.67;;;9.30;99.90;;;;;;4955880;29;20030;-74
2024/02/03 00:30:07;;;;;;;43.55;19.38;;;9.30;99.90;;;;;;4938489;29;20543;-73
2024/02/03 00:32:32;;;;;;;52.05;22.83;;;9.30;99.90;;;;;;4955361;28;20015;-74
2024/02/03 00:34:58;;;;;;;53.63;21.33;;;9.30;99.90;;;;;;4955267;28;20112;-74
2024/02/03 00:37:23;;;;;;;47.08;22.98;;;9.30;99.90;;;;;;4937986;29;20469;-73
2024/02/03 00:39:49;;;;;;;47.35;21.70;;;9.30;99.90;;;;;;4937652;29;20055;-74
2024/02/03 00:42:14;;;;;;;41.92;22.42;;;9.30;99.90;;;;;;4953655;28;20042;-71
2024/02/03 00:44:40;;;;;;;42.90;19.75;;;9.40;99.90;;;;;;4938271;29;20042;-72
2024/02/03 00:47:06;;;;;;;44.63;19.92;;;9.30;99.90;;;;;;4955146;29;20035;-74
2024/02/03 00:49:32;;;;;;;43.72;19.80;;;9.30;99.90;;;;;;4955069;28;20039;-74
2024/02/03 00:51:57;;;;;;;52.28;21.10;;;9.30;99.90;;;;;;4954145;28;20032;-72
2024/02/03 00:54:23;;;;;;;57.45;24.25;;;9.30;99.90;;;;;;4954781;28;20023;-73
2024/02/03 00:56:49;;;;;;;51.63;24.50;;;9.30;99.90;;;;;;4956029;28;20074;-72
2024/02/03 00:59:14;;;;;;;52.85;21.73;;;9.30;99.90;;;;;;4956101;28;20027;-74
2024/02/03 01:01:40;;;;;;;47.88;20.88;;;9.30;99.90;;;;;;4954890;28;20102;-75
2024/02/03 01:04:06;;;;;;;55.92;24.40;;;9.30;99.90;;;;;;4954910;28;20026;-74
2024/02/03 01:06:31;;;;;;;56.35;23.30;;;9.30;99.90;;;;;;4954150;29;20031;-74
2024/02/03 01:08:57;;;;;;;55.10;22.85;;;9.30;99.90;;;;;;4954604;28;20527;-73
2024/02/03 01:11:22;;;;;;;51.00;23.52;;;9.30;99.90;;;;;;4955136;29;20075;-75
2024/02/03 01:13:48;;;;;;;52.20;24.15;;;9.30;99.90;;;;;;4955038;29;20036;-75
2024/02/03 01:16:15;;;;;;;62.03;25.70;;;9.20;99.90;;;;;;4937630;29;20032;-73
2024/02/03 01:18:41;;;;;;;52.63;22.85;;;9.20;99.90;;;;;;4954633;29;20465;-73
2024/02/03 01:21:07;;;;;;;52.88;22.02;;;9.20;99.90;;;;;;4954232;28;20058;-74
2024/02/03 01:23:32;;;;;;;51.20;23.77;;;9.20;99.90;;;;;;4953243;28;20055;-74
2024/02/03 01:25:58;;;;;;;54.67;23.98;;;9.20;99.90;;;;;;4954158;28;20031;-75
2024/02/03 01:28:23;;;;;;;42.80;20.63;;;9.20;99.90;;;;;;4954798;28;20142;-75
2024/02/03 01:30:49;;;;;;;51.83;23.13;;;9.20;99.90;;;;;;4953762;28;20083;-72
2024/02/03 01:33:15;;;;;;;49.83;23.20;;;9.20;99.90;;;;;;4937466;29;20027;-72
2024/02/03 01:35:40;;;;;;;51.33;22.52;;;9.20;99.90;;;;;;4954580;28;20035;-72
2024/02/03 01:38:06;;;;;;;50.15;22.70;;;9.20;99.90;;;;;;4938204;28;20111;-72
2024/02/03 01:40:32;;;;;;;53.92;24.15;;;9.20;99.90;;;;;;4955589;28;20031;-72
2024/02/03 01:43:07;;;;;;;55.92;24.17;;;9.20;99.90;;;;;;4937020;29;20042;-71
2024/02/03 01:45:32;;;;;;;45.50;21.02;;;9.20;99.90;;;;;;4954612;28;20028;-73
2024/02/03 01:47:58;;;;;;;51.60;21.67;;;9.20;99.90;;;;;;4937290;28;20019;-73
2024/02/03 01:50:25;;;;;;;45.60;22.33;;;9.10;99.90;;;;;;4954389;28;20040;-74
2024/02/03 01:52:51;;;;;;;51.50;22.63;;;9.20;99.90;;;;;;4953991;28;20082;-69
2024/02/03 01:55:18;;;;;;;53.17;23.92;;;9.20;99.90;;;;;;4953828;28;20412;-73
2024/02/03 01:57:45;;;;;;;49.00;22.90;;;9.20;99.90;;;;;;4953972;28;20027;-75
2024/02/03 02:00:12;;;;;;;49.42;22.35;;;9.20;99.90;;;;;;4937123;29;20043;-74
2024/02/03 02:02:38;;;;;;;47.25;21.90;;;9.20;99.90;;;;;;4953998;28;20016;-74
2024/02/03 02:05:04;;;;;;;56.20;24.95;;;9.20;99.90;;;;;;4954612;29;20028;-74
2024/02/03 02:07:29;;;;;;;51.00;24.10;;;9.20;99.90;;;;;;4937779;29;20062;-72
2024/02/03 02:09:55;;;;;;;55.78;25.92;;;9.20;99.90;;;;;;4953961;28;20130;-74
2024/02/03 02:12:21;;;;;;;54.78;24.90;;;9.20;99.90;;;;;;4953778;28;20027;-74
2024/02/03 02:14:47;;;;;;;61.47;23.60;;;9.20;99.90;;;;;;4936773;29;20030;-71
2024/02/03 02:17:12;;;;;;;54.70;25.30;;;9.20;99.90;;;;;;4936700;29;20027;-75
2024/02/03 02:19:38;;;;;;;58.47;24.27;;;9.20;99.90;;;;;;4953583;28;20110;-71
2024/02/03 02:22:03;;;;;;;65.95;26.27;;;9.20;99.90;;;;;;4953998;28;20047;-72
2024/02/03 02:24:29;;;;;;;64.20;27.33;;;9.20;99.90;;;;;;4936581;29;20126;-74
2024/02/03 02:26:55;;;;;;;64.85;27.13;;;9.20;99.90;;;;;;4953952;29;20074;-73
2024/02/03 02:29:20;;;;;;;60.90;25.70;;;9.20;99.90;;;;;;4953873;28;20035;-73
2024/02/03 02:31:46;;;;;;;58.05;26.17;;;9.30;99.90;;;;;;4935975;28;20015;-72
2024/02/03 02:34:11;;;;;;;61.63;25.27;;;9.30;99.90;;;;;;4953822;29;20030;-72
2024/02/03 02:36:37;;;;;;;56.78;24.40;;;9.30;99.90;;;;;;4953269;29;20110;-75
2024/02/03 02:39:05;;;;;;;60.63;25.30;;;9.30;99.90;;;;;;4952606;29;20030;-73
2024/02/03 02:41:30;;;;;;;55.97;24.95;;;9.30;99.90;;;;;;4936245;29;20071;-73
2024/02/03 02:43:56;;;;;;;52.70;23.13;;;9.30;99.90;;;;;;4936301;29;20023;-76
2024/02/03 02:46:26;;;;;;;55.55;23.67;;;9.30;99.90;;;;;;4953175;28;20082;-74
2024/02/03 02:48:52;;;;;;;49.22;24.15;;;9.30;99.90;;;;;;4953023;28;20028;-75
2024/02/03 02:51:17;;;;;;;50.08;21.83;;;9.30;99.90;;;;;;4953486;28;20023;-74
2024/02/03 02:53:43;;;;;;;52.05;22.08;;;9.40;99.90;;;;;;4953120;29;20101;-74
2024/02/03 02:56:08;;;;;;;47.72;21.65;;;9.40;99.90;;;;;;4954235;28;20032;-74
2024/02/03 02:58:34;;;;;;;52.10;22.60;;;9.40;99.90;;;;;;4952869;28;20800;-73
2024/02/03 03:01:00;;;;;;;49.80;21.98;;;9.40;99.90;;;;;;4936108;29;20046;-72
2024/02/03 03:03:25;;;;;;;50.22;22.98;;;9.40;99.90;;;;;;4953401;28;20023;-73
2024/02/03 03:05:51;;;;;;;48.50;21.73;;;9.40;99.90;;;;;;4949758;29;20040;-73
2024/02/03 03:08:16;;;;;;;49.28;22.27;;;9.40;99.90;;;;;;4952328;29;20039;-71
2024/02/03 03:10:42;;;;;;;51.22;21.75;;;9.40;99.90;;;;;;4952838;29;20434;-75
2024/02/03 03:13:07;;;;;;;46.67;20.58;;;9.40;99.90;;;;;;4935660;29;20131;-73
2024/02/03 03:15:33;;;;;;;38.65;18.10;;;9.40;99.90;;;;;;4935607;29;20024;-73
2024/02/03 03:17:59;;;;;;;45.58;21.27;;;9.40;99.90;;;;;;4953141;28;20027;-72
2024/02/03 03:20:24;;;;;;;47.10;21.50;;;9.50;99.90;;;;;;4952420;28;20039;-73
2024/02/03 03:22:50;;;;;;;44.40;20.35;;;9.50;99.90;;;;;;4935465;28;20019;-75
2024/02/03 03:25:15;;;;;;;42.28;19.33;;;9.50;99.90;;;;;;4952997;28;20075;-73
2024/02/03 03:27:41;;;;;;;43.28;19.85;;;9.50;99.90;;;;;;4935191;29;20453;-72
2024/02/03 03:30:07;;;;;;;42.40;19.50;;;9.40;99.90;;;;;;4935677;29;20027;-74
2024/02/03 03:32:33;;;;;;;44.38;20.90;;;9.50;99.90;;;;;;4949540;28;20473;-74
2024/02/03 03:34:58;;;;;;;45.83;20.13;;;9.50;99.90;;;;;;4935310;29;20038;-73
2024/02/03 03:37:24;;;;;;;42.25;19.23;;;9.50;99.90;;;;;;4952787;28;20107;-72
2024/02/03 03:39:51;;;;;;;38.40;18.88;;;9.50;99.90;;;;;;4952115;28;20054;-73
2024/02/03 03:42:17;;;;;;;36.67;18.35;;;9.50;99.90;;;;;;4951120;28;20024;-72
2024/02/03 03:44:43;;;;;;;38.95;19.10;;;9.50;99.90;;;;;;4935946;28;20034;-73
2024/02/03 03:47:10;;;;;;;41.90;18.92;;;9.50;99.90;;;;;;4952804;28;20070;-74
2024/02/03 03:49:35;;;;;;;48.22;19.33;;;9.60;99.90;;;;;;4953439;28;20061;-75
2024/02/03 03:52:01;;;;;;;43.25;15.65;;;9.60;99.90;;;;;;4956959;29;20032;-73
2024/02/03 03:54:26;;;;;;;40.47;17.33;;;9.60;99.90;;;;;;4956388;28;20031;-73
2024/02/03 03:56:52;;;;;;;35.97;16.40;;;9.60;99.90;;;;;;4939006;29;21199;-74
2024/02/03 03:59:18;;;;;;;42.17;17.67;;;9.60;99.90;;;;;;4956247;28;20027;-73
2024/02/03 04:01:49;;;;;;;41.13;16.85;;;9.60;99.90;;;;;;4938555;29;20035;-72
2024/02/03 04:04:16;;;;;;;37.97;16.70;;;9.60;99.90;;;;;;4956284;28;20062;-74
2024/02/03 04:06:42;;;;;;;35.42;16.17;;;9.60;99.90;;;;;;4956264;28;20047;-75
2024/02/03 04:09:08;;;;;;;41.00;16.75;;;9.60;99.90;;;;;;4955846;28;20055;-73
2024/02/03 04:11:33;;;;;;;33.33;16.23;;;9.60;99.90;;;;;;4938932;29;20147;-75
2024/02/03 04:13:59;;;;;;;32.72;15.30;;;9.60;99.90;;;;;;4938958;29;20028;-73
2024/02/03 04:16:24;;;;;;;35.53;15.85;;;9.70;99.90;;;;;;4938078;28;20873;-73
2024/02/03 04:18:50;;;;;;;36.45;15.05;;;9.60;99.90;;;;;;4938603;29;20096;-72
2024/02/03 04:21:15;;;;;;;36.53;15.68;;;9.70;99.90;;;;;;4956039;28;20079;-71
2024/02/03 04:23:41;;;;;;;34.80;14.80;;;9.70;99.90;;;;;;4938444;28;20031;-72
2024/02/03 04:26:07;;;;;;;30.13;14.48;;;9.70;99.90;;;;;;4956158;28;20134;-73
2024/02/03 04:28:32;;;;;;;31.20;14.40;;;9.70;99.90;;;;;;4938803;28;20019;-74
2024/02/03 04:30:58;;;;;;;29.85;14.88;;;9.70;99.90;;;;;;4955762;28;20043;-74
2024/02/03 04:33:24;;;;;;;28.10;14.02;;;9.70;99.90;;;;;;4955789;28;20062;-75
2024/02/03 04:35:49;;;;;;;28.27;14.00;;;9.70;99.90;;;;;;4938269;29;20028;-73
2024/02/03 04:38:15;;;;;;;26.60;14.05;;;9.70;99.90;;;;;;4938272;29;20021;-75
2024/02/03 04:40:40;;;;;;;32.20;13.93;;;9.70;99.90;;;;;;4938175;29;20070;-74
2024/02/03 04:43:06;;;;;;;30.95;14.57;;;9.70;99.90;;;;;;4938229;29;20070;-74
2024/02/03 04:45:32;;;;;;;27.15;12.75;;;9.80;99.90;;;;;;4955907;28;20019;-71
2024/02/03 04:47:57;;;;;;;25.15;12.20;;;9.70;99.90;;;;;;4955803;28;20036;-73
2024/02/03 04:50:23;;;;;;;28.65;12.73;;;9.70;99.90;;;;;;4938161;28;20031;-73
2024/02/03 04:52:48;;;;;;;32.03;12.38;;;9.80;99.90;;;;;;4954845;28;20043;-75
2024/02/03 04:55:14;;;;;;;25.67;11.60;;;9.80;99.90;;;;;;4955289;28;20023;-72
2024/02/03 04:57:40;;;;;;;23.38;11.70;;;9.80;99.90;;;;;;4937784;28;20027;-72
2024/02/03 05:00:08;;;;;;;23.40;12.23;;;9.80;99.90;;;;;;4954015;28;20058;-74
2024/02/03 05:02:34;;;;;;;26.50;11.52;;;9.80;99.90;;;;;;4954664;29;20015;-72
2024/02/03 05:04:59;;;;;;;32.35;12.43;;;9.90;99.90;;;;;;4937881;29;20038;-72
2024/02/03 05:07:25;;;;;;;23.45;11.38;;;9.80;99.90;;;;;;4955157;28;20066;-72
2024/02/03 05:09:50;;;;;;;26.30;11.07;;;9.90;99.90;;;;;;4955236;29;20040;-72
2024/02/03 05:12:16;;;;;;;27.73;10.43;;;9.80;99.90;;;;;;4937792;29;20055;-72
2024/02/03 05:14:41;;;;;;;23.40;11.05;;;9.90;99.90;;;;;;4954149;28;20027;-73
2024/02/03 05:17:08;;;;;;;25.42;10.63;;;9.90;99.90;;;;;;4938170;29;20074;-70
2024/02/03 05:19:33;;;;;;;22.02;10.48;;;9.90;99.90;;;;;;4954690;28;20095;-74
2024/02/03 05:21:59;;;;;;;27.25;10.50;;;9.90;99.90;;;;;;4952839;28;20503;-71
2024/02/03 05:24:24;;;;;;;25.30;9.50;;;9.90;99.90;;;;;;4951816;28;20035;-72
2024/02/03 05:26:50;;;;;;;29.38;10.00;;;10.00;99.90;;;;;;4936678;29;20539;-70
2024/02/03 05:29:16;;;;;;;19.58;9.45;;;10.00;99.90;;;;;;4937788;28;20083;-73
2024/02/03 05:31:42;;;;;;;20.52;9.55;;;10.00;99.90;;;;;;4954876;28;20503;-74
2024/02/03 05:34:07;;;;;;;24.02;9.68;;;10.00;99.90;;;;;;4954553;29;20023;-74
2024/02/03 05:36:33;;;;;;;21.15;9.90;;;10.00;99.90;;;;;;4937706;29;20035;-75
2024/02/03 05:38:58;;;;;;;20.73;9.70;;;10.00;99.90;;;;;;4937759;29;20058;-73
2024/02/03 05:41:24;;;;;;;27.05;10.30;;;10.00;99.90;;;;;;4937082;28;20103;-75
2024/02/03 05:43:49;;;;;;;20.10;10.20;;;10.00;99.90;;;;;;4937066;29;20039;-75
2024/02/03 05:46:15;;;;;;;24.25;9.02;;;10.00;99.90;;;;;;4938063;29;20034;-73
2024/02/03 05:48:40;;;;;;;21.98;9.30;;;10.00;99.90;;;;;;4955208;28;20103;-74
2024/02/03 05:51:06;;;;;;;20.48;9.38;;;10.00;99.90;;;;;;4937961;29;20038;-71
2024/02/03 05:53:35;;;;;;;21.15;9.13;;;10.00;99.90;;;;;;4955327;28;20035;-74
2024/02/03 05:56:02;;;;;;;21.95;9.27;;;10.00;99.90;;;;;;4954165;28;20027;-73
2024/02/03 05:58:28;;;;;;;27.38;10.07;;;10.00;99.90;;;;;;4934427;29;20131;-71
2024/02/03 06:00:54;;;;;;;17.60;8.80;;;10.00;99.90;;;;;;4951838;28;20071;-73
2024/02/03 06:03:20;;;;;;;20.48;8.93;;;10.00;99.90;;;;;;4935064;28;20031;-75
2024/02/03 06:05:45;;;;;;;21.10;8.70;;;10.10;99.90;;;;;;4949056;28;20092;-73
2024/02/03 06:08:11;;;;;;;26.98;10.43;;;10.00;99.90;;;;;;4949100;29;20182;-74
2024/02/03 06:10:36;;;;;;;27.60;8.55;;;10.10;99.90;;;;;;4951918;28;20031;-73
2024/02/03 06:13:02;;;;;;;16.05;8.68;;;10.10;99.90;;;;;;4954423;28;20027;-74
2024/02/03 06:15:27;;;;;;;28.27;8.93;;;10.00;99.90;;;;;;4953946;28;20051;-73
2024/02/03 06:17:53;;;;;;;20.83;9.15;;;10.10;99.90;;;;;;4936927;29;20036;-74
2024/02/03 06:20:18;;;;;;;18.35;7.55;;;10.10;99.90;;;;;;4954265;28;20078;-73
2024/02/03 06:22:44;;;;;;;19.77;9.18;;;10.10;99.90;;;;;;4935862;28;20035;-73
2024/02/03 06:25:10;;;;;;;25.70;8.98;;;10.10;99.90;;;;;;4953034;29;20038;-72
2024/02/03 06:27:38;;;;;;;24.05;8.82;;;10.10;99.90;;;;;;4954170;28;20421;-74
2024/02/03 06:30:04;;;;;;;24.50;9.88;;;10.00;99.90;;;;;;4935059;28;20087;-74
2024/02/03 06:32:32;;;;;;;23.17;8.85;;;10.10;99.90;;;;;;4952028;28;20035;-72
2024/02/03 06:34:58;;;;;;;23.05;8.95;;;10.10;99.90;;;;;;4931789;29;20091;-72
2024/02/03 06:37:24;;;;;;;21.27;8.68;;;10.10;99.90;;;;;;4948198;29;20027;-73
2024/02/03 06:39:49;;;;;;;19.85;9.52;;;10.10;99.90;;;;;;4935870;29;20063;-73
2024/02/03 06:42:15;;;;;;;19.48;9.20;;;10.10;99.90;;;;;;4953770;28;20050;-74
2024/02/03 06:44:40;;;;;;;25.20;8.75;;;10.10;99.90;;;;;;4953584;28;20035;-73
2024/02/03 06:47:06;;;;;;;21.58;8.63;;;10.10;99.90;;;;;;4952197;28;20508;-75
2024/02/03 06:49:31;;;;;;;19.52;8.18;;;10.10;99.90;;;;;;4937383;29;20019;-74
2024/02/03 06:51:57;;;;;;;22.13;8.85;;;10.10;99.90;;;;;;4935806;28;20079;-74
2024/02/03 06:54:23;;;;;;;20.10;8.85;;;10.10;99.90;;;;;;4953152;28;20034;-74
2024/02/03 06:56:49;;;;;;;21.10;8.68;;;10.10;99.90;;;;;;4954020;29;20015;-75
2024/02/03 06:59:14;;;;;;;20.27;8.05;;;10.10;99.90;;;;;;4930908;28;20038;-75
2024/02/03 07:01:40;;;;;;;21.58;9.02;;;10.10;99.90;;;;;;4935036;29;20031;-74
2024/02/03 07:04:05;;;;;;;18.90;8.85;;;10.10;99.90;;;;;;4953925;29;20035;-77
2024/02/03 07:06:31;;;;;;;21.15;8.35;;;10.10;99.90;;;;;;4934496;29;20031;-76
2024/02/03 07:08:56;;;;;;;22.60;9.13;;;10.10;99.90;;;;;;4952706;28;20054;-76
2024/02/03 07:11:22;;;;;;;18.83;8.43;;;10.10;99.90;;;;;;4953581;28;20031;-74
2024/02/03 07:13:47;;;;;;;23.15;8.55;;;10.10;99.90;;;;;;4935970;29;20029;-75
2024/02/03 07:16:14;;;;;;;19.38;8.18;;;10.10;99.90;;;;;;4936274;28;20024;-74
2024/02/03 07:18:40;;;;;;;20.63;8.07;;;10.10;99.90;;;;;;4953442;28;20031;-74
2024/02/03 07:21:06;;;;;;;22.92;9.40;;;10.10;99.90;;;;;;4953106;28;20032;-75
2024/02/03 07:23:32;;;;;;;17.98;8.23;;;10.10;99.90;;;;;;4952039;28;20728;-76
2024/02/03 07:25:57;;;;;;;18.63;8.63;;;10.10;99.90;;;;;;4953134;29;20059;-76
2024/02/03 07:28:23;;;;;;;23.13;8.43;;;10.10;99.90;;;;;;4953220;28;20027;-74
2024/02/03 07:30:48;;;;;;;20.77;8.50;;;10.10;99.90;;;;;;4952882;28;20031;-76
2024/02/03 07:33:14;;;;;;;18.45;8.20;;;10.20;99.90;;;;;;4953505;29;20151;-74
2024/02/03 07:35:40;;;;;;;21.50;8.82;;;10.20;99.90;;;;;;4953219;28;20024;-78
2024/02/03 07:38:05;;;;;;;21.20;9.40;;;10.20;99.90;;;;;;4953460;28;20027;-76
2024/02/03 07:40:31;;;;;;;21.92;8.63;;;10.20;99.90;;;;;;4936357;29;20036;-77
2024/02/03 07:42:56;;;;;;;17.05;8.40;;;10.10;99.90;;;;;;4953040;28;20077;-77
2024/02/03 07:45:22;;;;;;;21.90;7.82;;;10.20;99.90;;;;;;4953250;28;20036;-76
2024/02/03 07:47:47;;;;;;;22.92;8.07;;;10.20;99.90;;;;;;4932959;29;20028;-72
2024/02/03 07:50:13;;;;;;;20.13;8.02;;;10.20;99.90;;;;;;4949799;29;20063;-73
2024/02/03 07:52:39;;;;;;;19.85;8.55;;;10.20;99.90;;;;;;4952907;28;20035;-76
2024/02/03 07:55:06;;;;;;;18.00;7.70;;;10.20;99.90;;;;;;4953415;28;20031;-74
2024/02/03 07:57:39;;;;;;;17.20;8.00;;;10.20;99.90;;;;;;4952604;28;20034;-73
2024/02/03 08:00:06;;;;;;;18.52;8.40;;;10.20;99.90;;;;;;4953298;28;20162;-73
2024/02/03 08:02:32;;;;;;;18.40;8.48;;;10.20;99.90;;;;;;4950200;28;20038;-72
2024/02/03 08:04:57;;;;;;;26.30;8.95;;;10.20;99.90;;;;;;4935830;29;20706;-71
2024/02/03 08:07:23;;;;;;;27.05;9.15;;;10.20;99.90;;;;;;4951379;28;20104;-72
2024/02/03 08:09:48;;;;;;;18.17;8.88;;;10.20;99.90;;;;;;4951992;28;20094;-72
2024/02/03 08:12:14;;;;;;;21.38;9.65;;;10.20;99.90;;;;;;4934966;28;20043;-73
2024/02/03 08:14:39;;;;;;;27.27;9.50;;;10.20;99.90;;;;;;4931843;29;20028;-73
2024/02/03 08:17:05;;;;;;;24.20;8.80;;;10.20;99.90;;;;;;4932221;29;20035;-73
2024/02/03 08:19:30;;;;;;;24.50;10.20;;;10.20;99.90;;;;;;4951084;28;20035;-74
2024/02/03 08:21:56;;;;;;;19.08;8.88;;;10.20;99.90;;;;;;4933817;28;20090;-72
2024/02/03 08:24:21;;;;;;;18.70;9.18;;;10.20;99.90;;;;;;4935087;29;20075;-73
2024/02/03 08:26:47;;;;;;;24.30;10.18;;;10.20;99.90;;;;;;4930678;29;20032;-74
2024/02/03 08:29:12;;;;;;;29.80;9.55;;;10.30;99.90;;;;;;4948578;28;20075;-72
2024/02/03 08:31:38;;;;;;;16.83;9.30;;;10.30;99.90;;;;;;4949381;28;20118;-73
2024/02/03 08:34:03;;;;;;;23.67;9.77;;;10.30;99.90;;;;;;4934697;29;20039;-74
2024/02/03 08:36:29;;;;;;;27.92;10.57;;;10.30;99.90;;;;;;4937862;29;20457;-72
2024/02/03 08:38:55;;;;;;;25.30;10.18;;;10.30;99.90;;;;;;4954631;28;20051;-73
2024/02/03 08:41:21;;;;;;;22.52;10.20;;;10.30;99.90;;;;;;4938180;29;20071;-73
2024/02/03 08:43:47;;;;;;;18.27;9.00;;;10.30;99.90;;;;;;4955898;29;20028;-72
2024/02/03 08:46:12;;;;;;;26.55;10.48;;;10.20;99.90;;;;;;4955559;28;20035;-72
2024/02/03 08:48:38;;;;;;;23.50;9.80;;;10.30;99.90;;;;;;4954675;28;20038;-72
2024/02/03 08:51:04;;;;;;;29.95;11.18;;;10.30;99.90;;;;;;4955837;28;20023;-74
2024/02/03 08:53:29;;;;;;;22.95;10.73;;;10.30;99.90;;;;;;4953276;28;20070;-73
2024/02/03 08:55:55;;;;;;;28.83;11.93;;;10.30;99.90;;;;;;4953245;28;20043;-73
2024/02/03 08:58:20;;;;;;;20.85;10.23;;;10.30;99.90;;;;;;4952613;28;20432;-73
2024/02/03 09:00:46;;;;;;;24.65;10.98;;;10.30;99.90;;;;;;4951722;28;20108;-71
2024/02/03 09:03:12;;;;;;;28.05;10.77;;;10.30;99.90;;;;;;4934515;28;20035;-73
2024/02/03 09:05:37;;;;;;;22.67;10.18;;;10.30;99.90;;;;;;4952791;28;20027;-74
2024/02/03 09:08:03;;;;;;;21.38;9.57;;;10.30;99.90;;;;;;4952716;28;20030;-75
2024/02/03 09:10:30;;;;;;;20.35;9.18;;;10.30;99.90;;;;;;4936642;29;20056;-72
2024/02/03 09:12:55;;;;;;;23.77;9.95;;;10.30;99.90;;;;;;4952507;28;20027;-73
2024/02/03 09:15:21;;;;;;;31.48;12.93;;;10.30;99.90;;;;;;4952580;28;20031;-71
2024/02/03 09:17:46;;;;;;;25.85;10.40;;;10.30;99.90;;;;;;4935465;29;20432;-72
2024/02/03 09:20:12;;;;;;;25.10;10.38;;;10.40;99.90;;;;;;4937114;28;20043;-72
2024/02/03 09:22:37;;;;;;;19.63;9.95;;;10.40;99.90;;;;;;4948263;28;20028;-73
2024/02/03 09:25:03;;;;;;;19.98;9.90;;;10.30;99.90;;;;;;4937532;29;20019;-74
2024/02/03 09:27:29;;;;;;;24.00;9.45;;;10.40;99.90;;;;;;4952323;28;20091;-72
2024/02/03 09:29:54;;;;;;;25.00;12.23;;;10.30;99.90;;;;;;4933557;28;20051;-72
2024/02/03 09:32:23;;;;;;;24.30;9.18;;;10.30;99.90;;;;;;4937896;29;20024;-74
2024/02/03 09:34:49;;;;;;;23.23;9.85;;;10.40;99.90;;;;;;4952913;29;20035;-73
2024/02/03 09:37:15;;;;;;;25.55;10.20;;;10.40;99.90;;;;;;4937772;29;20024;-73
2024/02/03 09:39:42;;;;;;;20.92;8.20;;;10.40;99.90;;;;;;4948417;28;20059;-76
2024/02/03 09:42:08;;;;;;;21.02;9.40;;;10.40;99.90;;;;;;4933803;29;20035;-75
2024/02/03 09:44:34;;;;;;;20.90;9.52;;;10.40;99.90;;;;;;4952483;28;20370;-76
2024/02/03 09:47:00;;;;;;;25.33;10.35;;;10.40;99.90;;;;;;4934022;29;20038;-73
2024/02/03 09:49:25;;;;;;;23.02;9.77;;;10.40;99.90;;;;;;4953986;28;20019;-73
2024/02/03 09:51:51;;;;;;;25.20;10.13;;;10.40;99.90;;;;;;4931669;28;20027;-75
2024/02/03 09:54:17;;;;;;;28.55;10.10;;;10.40;99.90;;;;;;4932957;29;20039;-73
2024/02/03 09:56:46;;;;;;;16.73;8.60;;;10.50;99.90;;;;;;4952803;28;20024;-75
2024/02/03 09:59:15;;;;;;;22.30;8.90;;;10.50;99.90;;;;;;4948255;29;20444;-74
2024/02/03 10:01:45;;;;;;;23.67;9.50;;;10.50;99.90;;;;;;4949411;28;20035;-74
2024/02/03 10:04:14;;;;;;;19.70;8.68;;;10.50;99.90;;;;;;4949272;28;20028;-74
2024/02/03 10:06:42;;;;;;;18.42;8.85;;;10.60;99.90;;;;;;4952264;28;20053;-77
2024/02/03 10:09:08;;;;;;;26.30;8.98;;;10.60;99.90;;;;;;4946608;28;20040;-74
2024/02/03 10:11:40;;;;;;;25.65;8.85;;;10.60;99.90;;;;;;4935756;29;20023;-73
2024/02/03 10:14:06;;;;;;;22.20;9.10;;;10.60;99.90;;;;;;4954901;28;20035;-73
2024/02/03 10:16:43;;;;;;;24.80;8.27;;;10.60;99.90;;;;;;4937188;29;20038;-74
2024/02/03 10:19:08;;;;;;;19.58;8.73;;;10.60;99.90;;;;;;4954290;28;20015;-72
2024/02/03 10:21:34;;;;;;;15.27;8.60;;;10.60;99.90;;;;;;4936650;28;20031;-75
2024/02/03 10:23:59;;;;;;;18.55;8.50;;;10.60;99.90;;;;;;4953626;28;20424;-73
2024/02/03 10:26:25;;;;;;;26.08;9.40;;;10.70;99.90;;;;;;4938232;28;20048;-72
2024/02/03 10:28:51;;;;;;;25.23;9.50;;;10.60;99.90;;;;;;4937002;29;20063;-74
2024/02/03 10:31:16;;;;;;;21.60;9.02;;;10.60;99.90;;;;;;4936201;29;20380;-71
2024/02/03 10:33:45;;;;;;;16.05;7.78;;;10.70;99.90;;;;;;4937105;28;20469;-75
2024/02/03 10:36:11;;;;;;;22.73;8.93;;;10.70;99.90;;;;;;4936969;28;20035;-74
2024/02/03 10:38:36;;;;;;;20.98;8.90;;;10.70;99.90;;;;;;4953414;28;20408;-74
2024/02/03 10:41:05;;;;;;;21.42;8.52;;;10.70;99.90;;;;;;4953887;28;20036;-72
2024/02/03 10:43:34;;;;;;;21.35;8.77;;;10.70;99.90;;;;;;4953702;28;20031;-74
2024/02/03 10:46:08;;;;;;;21.92;8.55;;;10.70;99.90;;;;;;4936118;29;20028;-74
2024/02/03 10:48:40;;;;;;;22.60;8.77;;;10.70;99.90;;;;;;4953907;29;20118;-73
2024/02/03 10:51:15;;;;;;;18.70;7.72;;;10.70;99.90;;;;;;4951558;28;20028;-74
2024/02/03 10:53:50;;;;;;;16.52;8.45;;;10.70;99.90;;;;;;4931046;29;20023;-75
2024/02/03 10:56:18;;;;;;;21.90;8.85;;;10.70;99.90;;;;;;4937331;29;20046;-75
2024/02/03 10:58:44;;;;;;;22.58;7.75;;;10.70;99.90;;;;;;4945212;28;20023;-75
2024/02/03 11:01:20;;;;;;;20.75;8.23;;;10.70;99.90;;;;;;4949414;28;20063;-74
2024/02/03 11:03:50;;;;;;;24.35;9.07;;;10.70;99.90;;;;;;4952467;29;20028;-75
2024/02/03 11:06:27;;;;;;;19.45;8.60;;;10.60;99.90;;;;;;4950129;29;20095;-76
2024/02/03 11:08:53;;;;;;;19.08;8.25;;;10.60;99.90;;;;;;4935280;29;20055;-74
2024/02/03 11:11:26;;;;;;;20.90;8.38;;;10.50;99.90;;;;;;4935796;29;20039;-75
2024/02/03 11:13:54;;;;;;;37.90;15.02;;;10.50;99.90;;;;;;4930006;29;20183;-76
2024/02/03 11:16:20;;;;;;;24.33;9.50;;;10.50;99.90;;;;;;4935312;29;20031;-76
2024/02/03 11:18:49;;;;;;;18.23;9.05;;;10.50;99.90;;;;;;4935403;29;20063;-73
2024/02/03 11:21:15;;;;;;;20.33;8.38;;;10.50;99.90;;;;;;4951849;28;20090;-75
2024/02/03 11:23:42;;;;;;;24.25;7.60;;;10.50;99.90;;;;;;4934495;29;20036;-75
2024/02/03 11:26:09;;;;;;;32.55;10.57;;;10.50;99.90;;;;;;4952847;28;20031;-75
2024/02/03 11:28:34;;;;;;;26.10;8.48;;;10.50;99.90;;;;;;4934855;29;20028;-75
2024/02/03 11:31:10;;;;;;;25.50;7.95;;;10.60;99.90;;;;;;4936098;29;20038;-73
2024/02/03 11:33:43;;;;;;;22.58;9.02;;;10.50;99.90;;;;;;4951222;28;20376;-75
2024/02/03 11:36:12;;;;;;;20.23;8.45;;;10.50;99.90;;;;;;4934254;29;20043;-75
2024/02/03 11:38:48;;;;;;;21.27;9.10;;;10.50;99.90;;;;;;4950410;29;20039;-74
2024/02/03 11:41:15;;;;;;;18.25;8.57;;;10.50;99.90;;;;;;4932925;29;20041;-73
2024/02/03 11:43:41;;;;;;;23.00;8.60;;;10.50;99.90;;;;;;4933984;29;20088;-75
2024/02/03 11:46:09;;;;;;;23.00;8.50;;;10.60;99.90;;;;;;4952412;28;20024;-76
2024/02/03 11:48:36;;;;;;;27.98;9.55;;;10.50;99.90;;;;;;4952389;28;20035;-76
2024/02/03 11:51:04;;;;;;;22.67;8.02;;;10.50;99.90;;;;;;4953580;28;20024;-75
2024/02/03 11:53:29;;;;;;;19.38;7.00;;;10.60;99.90;;;;;;4952621;28;20040;-73
2024/02/03 11:55:56;;;;;;;17.40;7.68;;;10.60;99.90;;;;;;4952406;28;20103;-74
2024/02/03 11:58:23;;;;;;;27.08;8.18;;;10.60;99.90;;;;;;4953384;28;20058;-76
2024/02/03 12:01:09;;;;;;;24.83;7.85;;;10.60;99.90;;;;;;4935743;29;20066;-76
2024/02/03 12:03:38;;;;;;;26.92;8.38;;;10.60;99.90;;;;;;4931828;29;20031;-78
2024/02/03 12:06:07;;;;;;;18.92;7.50;;;10.60;99.90;;;;;;4935908;29;20032;-75
2024/02/03 12:08:33;;;;;;;22.73;7.35;;;10.60;99.90;;;;;;4928903;29;20087;-74
2024/02/03 12:10:59;;;;;;;26.50;8.00;;;10.70;99.90;;;;;;4935298;29;20442;-75
2024/02/03 12:13:25;;;;;;;20.92;8.30;;;10.70;99.90;;;;;;4935174;29;20023;-75
2024/02/03 12:15:55;;;;;;;22.63;8.07;;;10.70;99.90;;;;;;4932016;29;20431;-73
2024/02/03 12:18:21;;;;;;;15.80;7.25;;;10.70;99.90;;;;;;4934966;29;20063;-76
2024/02/03 12:20:46;;;;;;;28.38;9.40;;;10.70;99.90;;;;;;4934052;29;20027;-76
2024/02/03 12:23:12;;;;;;;23.73;8.35;;;10.70;99.90;;;;;;4935144;29;20029;-77
2024/02/03 12:25:38;;;;;;;19.02;8.00;;;10.70;99.90;;;;;;4932433;29;20020;-75
2024/02/03 12:28:06;;;;;;;18.67;6.97;;;10.70;99.90;;;;;;4934066;29;20029;-76
2024/02/03 12:30:35;;;;;;;18.00;8.50;;;10.70;99.90;;;;;;4932347;29;20024;-73